Time;durP1;ratioP1;P1;durP2;ratioP2;P2;SDS_P1;SDS_P2;PMS_P1;PMS_P2;Temp;Humidity;BMP_temperature;BMP_pressure;BME280_temperature;BME280_humidity;BME280_pressure;Samples;Min_cycle;Max_cycle;Signal;HPM_P1;HPM_P2
2023/01/03 00:01:54;;;;;;;5.82;2.20;;;;;;;8.15;100.00;101466.88;4999904;28;20219;-75
2023/01/03 00:04:21;;;;;;;2.70;2.15;;;;;;;8.20;100.00;101452.50;4998504;28;20203;-75
2023/01/03 00:06:49;;;;;;;2.72;2.20;;;;;;;8.14;100.00;101456.19;4998488;28;20239;-76
2023/01/03 00:09:19;;;;;;;1.90;1.45;;;;;;;8.08;100.00;101456.28;4999354;28;20225;-76
2023/01/03 00:14:34;;;;;;;3.92;2.20;;;;;;;8.10;100.00;101465.19;4998494;28;20187;-75
2023/01/03 00:17:02;;;;;;;2.88;1.90;;;;;;;8.06;100.00;101450.94;5016084;28;20235;-76
2023/01/03 00:19:30;;;;;;;2.72;2.08;;;;;;;8.08;100.00;101457.16;5018932;28;20631;-76
2023/01/03 00:21:57;;;;;;;1.95;1.60;;;;;;;8.03;100.00;101447.44;5018958;28;20202;-75
2023/01/03 00:24:25;;;;;;;3.38;2.13;;;;;;;7.91;100.00;101449.44;5021032;28;20286;-76
2023/01/03 00:26:51;;;;;;;2.85;2.10;;;;;;;7.89;100.00;101459.31;5019473;28;20234;-76
2023/01/03 00:29:18;;;;;;;2.20;1.88;;;;;;;7.78;100.00;101455.91;5010791;28;20201;-76
2023/01/03 00:31:45;;;;;;;2.38;1.90;;;;;;;7.74;100.00;101467.59;4999629;28;20210;-75
2023/01/03 00:34:12;;;;;;;2.72;2.05;;;;;;;7.72;100.00;101456.91;4997681;28;20211;-75
2023/01/03 00:36:39;;;;;;;2.50;2.08;;;;;;;7.71;100.00;101457.81;4997943;28;20261;-75
2023/01/03 00:39:06;;;;;;;5.35;1.90;;;;;;;7.68;100.00;101460.53;4997541;28;20223;-76
2023/01/03 00:41:34;;;;;;;3.00;2.08;;;;;;;7.56;100.00;101462.56;4999793;28;20302;-76
2023/01/03 00:44:02;;;;;;;2.55;1.90;;;;;;;7.59;100.00;101466.03;5001357;28;20223;-75
2023/01/03 00:46:28;;;;;;;2.58;2.10;;;;;;;7.50;100.00;101466.19;5002390;28;20259;-75
2023/01/03 00:48:55;;;;;;;3.00;2.20;;;;;;;7.49;100.00;101459.97;5001651;28;20278;-75
2023/01/03 00:51:26;;;;;;;2.80;2.45;;;;;;;7.54;100.00;101465.25;5005218;28;20203;-75
2023/01/03 00:53:55;;;;;;;2.85;2.40;;;;;;;7.49;100.00;101461.75;5017912;28;20187;-76
2023/01/03 00:56:23;;;;;;;5.53;2.30;;;;;;;7.49;100.00;101462.63;5017232;28;20230;-76
2023/01/03 00:58:51;;;;;;;3.20;2.60;;;;;;;7.52;100.00;101464.38;5015450;28;20225;-76
2023/01/03 01:01:20;;;;;;;3.08;2.78;;;;;;;7.45;100.00;101466.25;5016289;28;20211;-76
2023/01/03 01:03:48;;;;;;;3.55;2.65;;;;;;;7.44;100.00;101458.25;5016223;28;20213;-76
2023/01/03 01:06:16;;;;;;;3.17;2.53;;;;;;;7.44;100.00;101460.91;5013977;28;20223;-76
2023/01/03 01:08:44;;;;;;;4.53;2.78;;;;;;;7.36;100.00;101470.91;5018581;28;20202;-76
2023/01/03 01:11:13;;;;;;;7.78;6.28;;;;;;;7.28;100.00;101474.56;5018771;28;20203;-76
2023/01/03 01:13:41;;;;;;;3.25;2.95;;;;;;;7.25;100.00;101471.03;5018214;28;20202;-76
2023/01/03 01:16:11;;;;;;;5.00;3.75;;;;;;;7.37;100.00;101480.69;5016841;28;20343;-75
2023/01/03 01:18:38;;;;;;;4.13;3.72;;;;;;;7.39;100.00;101490.47;5013135;28;20214;-75
2023/01/03 01:21:06;;;;;;;7.10;3.22;;;;;;;7.47;100.00;101482.34;4997403;28;20203;-74
2023/01/03 01:23:34;;;;;;;5.82;4.20;;;;;;;7.44;100.00;101495.75;4995780;28;20584;-76
2023/01/03 01:26:01;;;;;;;6.82;4.07;;;;;;;7.47;100.00;101501.09;4996788;28;20226;-74
2023/01/03 01:28:27;;;;;;;5.07;3.45;;;;;;;7.54;100.00;101502.78;4995786;28;20318;-73
2023/01/03 01:30:57;;;;;;;5.57;3.33;;;;;;;7.52;100.00;101507.28;4996377;28;20199;-73
2023/01/03 01:33:25;;;;;;;4.35;3.95;;;;;;;7.64;100.00;101501.75;4998298;28;20217;-72
2023/01/03 01:35:52;;;;;;;6.88;4.35;;;;;;;7.70;100.00;101492.69;5014835;28;20217;-74
2023/01/03 01:38:19;;;;;;;5.18;4.18;;;;;;;7.79;100.00;101507.75;5015197;28;20228;-75
2023/01/03 01:40:45;;;;;;;5.90;4.00;;;;;;;7.87;100.00;101508.53;5015680;28;20297;-75
2023/01/03 01:46:06;;;;;;;4.47;4.07;;;;;;;7.91;100.00;101507.53;4997497;28;20324;-74
2023/01/03 01:48:34;;;;;;;5.75;4.30;;;;;;;7.94;100.00;101510.19;5000621;28;20203;-73
2023/01/03 01:51:02;;;;;;;5.70;4.45;;;;;;;7.92;100.00;101504.84;5005503;28;20210;-73
2023/01/03 01:53:31;;;;;;;5.47;4.25;;;;;;;7.87;100.00;101513.91;4996121;28;20205;-74
2023/01/03 01:56:01;;;;;;;5.88;4.53;;;;;;;7.86;100.00;101517.47;4995544;28;20203;-74
2023/01/03 01:58:33;;;;;;;6.50;4.57;;;;;;;7.73;100.00;101517.69;4996456;28;20228;-75
2023/01/03 02:00:59;;;;;;;7.05;4.78;;;;;;;7.75;100.00;101524.81;5009493;28;20199;-74
2023/01/03 02:03:27;;;;;;;6.57;5.40;;;;;;;7.81;100.00;101514.88;5017123;28;20206;-73
2023/01/03 02:05:56;;;;;;;7.15;5.05;;;;;;;7.80;100.00;101523.84;5016440;28;20589;-73
2023/01/03 02:08:23;;;;;;;7.05;5.25;;;;;;;7.71;100.00;101532.00;5015754;28;20183;-75
2023/01/03 02:11:09;;;;;;;8.30;5.85;;;;;;;7.72;100.00;101523.94;5024052;28;20229;-72
2023/01/03 02:13:43;;;;;;;6.60;5.00;;;;;;;7.70;100.00;101522.19;5022717;28;20293;-73
2023/01/03 02:16:24;;;;;;;5.60;4.65;;;;;;;7.66;100.00;101525.81;5020730;28;20703;-74
2023/01/03 02:19:00;;;;;;;6.95;4.82;;;;;;;7.65;100.00;101522.25;5001704;28;20250;-74
2023/01/03 02:21:53;;;;;;;6.20;5.25;;;;;;;7.69;100.00;101525.81;4996483;28;20187;-73
2023/01/03 02:24:42;;;;;;;5.85;4.75;;;;;;;7.61;100.00;101520.53;4938610;29;20205;-74
2023/01/03 02:27:29;;;;;;;5.13;4.63;;;;;;;7.53;100.00;101527.81;4940650;29;20228;-73
2023/01/03 02:30:32;;;;;;;5.38;4.80;;;;;;;7.50;100.00;101522.50;4952417;29;20806;-74
2023/01/03 02:33:10;;;;;;;5.18;4.18;;;;;;;7.56;100.00;101511.69;4936427;29;20233;-75
2023/01/03 02:35:44;;;;;;;5.63;4.47;;;;;;;7.55;100.00;101515.25;4935726;29;20559;-71
2023/01/03 02:38:15;;;;;;;7.43;4.97;;;;;;;7.60;100.00;101521.47;4936334;29;20214;-75
2023/01/03 02:40:48;;;;;;;8.25;5.40;;;;;;;7.50;100.00;101515.31;4936871;29;20196;-75
2023/01/03 02:43:19;;;;;;;6.22;5.47;;;;;;;7.51;100.00;101524.28;4937119;29;20197;-76
2023/01/03 02:45:58;;;;;;;6.18;4.75;;;;;;;7.50;100.00;101528.72;4936656;29;20288;-73
2023/01/03 02:48:36;;;;;;;6.35;4.85;;;;;;;7.38;100.00;101528.03;4934989;29;20209;-74
2023/01/03 02:51:08;;;;;;;6.20;5.38;;;;;;;7.30;100.00;101531.72;4935670;29;20209;-75
2023/01/03 02:53:38;;;;;;;6.88;5.20;;;;;;;7.17;100.00;101524.75;4935531;29;20190;-75
2023/01/03 02:56:10;;;;;;;7.60;5.13;;;;;;;7.12;100.00;101537.31;4940869;29;20232;-74
2023/01/03 02:58:40;;;;;;;6.07;4.53;;;;;;;7.06;100.00;101546.31;4953247;29;20800;-75
2023/01/03 03:01:08;;;;;;;6.97;4.45;;;;;;;7.02;100.00;101543.69;4974276;28;20241;-74
2023/01/03 03:03:38;;;;;;;5.53;4.75;;;;;;;7.02;100.00;101549.06;5016088;28;20230;-74
2023/01/03 03:06:11;;;;;;;6.07;4.50;;;;;;;6.97;100.00;101545.56;5016443;28;20226;-72
2023/01/03 03:08:37;;;;;;;5.20;4.68;;;;;;;6.89;100.00;101546.50;5020190;28;20269;-74
2023/01/03 03:13:52;;;;;;;5.93;5.05;;;;;;;6.69;100.00;101556.56;5019581;28;20190;-73
2023/01/03 03:16:46;;;;;;;6.60;5.22;;;;;;;6.60;100.00;101556.66;5018042;28;20613;-75
2023/01/03 03:24:49;;;;;;;6.50;4.72;;;;;;;6.34;100.00;101564.97;4939144;29;20208;-76
2023/01/03 03:30:22;;;;;;;6.68;5.22;;;;;;;6.22;100.00;101555.28;4902787;29;20230;-74
2023/01/03 03:32:52;;;;;;;6.57;5.13;;;;;;;6.19;100.00;101557.94;4902264;29;20339;-72
2023/01/03 03:35:24;;;;;;;6.20;5.20;;;;;;;6.13;100.00;101553.56;4902490;29;20687;-74
2023/01/03 03:37:55;;;;;;;7.82;5.25;;;;;;;6.07;100.00;101555.41;4898307;29;20233;-73
2023/01/03 03:46:06;;;;;;;7.50;6.15;;;;;;;5.95;100.00;101567.97;4900872;29;20286;-75
2023/01/03 03:51:23;;;;;;;9.07;5.50;;;;;;;5.84;100.00;101564.44;4901316;29;20202;-74
2023/01/03 03:53:51;;;;;;;9.18;7.20;;;;;;;5.84;100.00;101565.34;4903242;29;20201;-75
2023/01/03 03:56:23;;;;;;;11.25;6.82;;;;;;;5.80;100.00;101563.56;4902183;29;20223;-75
2023/01/03 03:58:54;;;;;;;7.70;5.88;;;;;;;5.58;100.00;101572.63;4900071;29;20242;-75
2023/01/03 04:01:23;;;;;;;10.50;8.00;;;;;;;5.55;100.00;101575.34;4933735;28;20208;-75
2023/01/03 04:03:52;;;;;;;10.35;7.00;;;;;;;5.58;100.00;101573.50;4998473;28;20691;-74
2023/01/03 04:06:23;;;;;;;11.88;7.32;;;;;;;5.54;100.00;101574.44;4998180;28;20219;-75
2023/01/03 04:08:50;;;;;;;12.57;8.15;;;;;;;5.55;100.00;101575.34;4998017;28;20195;-75
2023/01/03 04:11:17;;;;;;;9.27;7.13;;;;;;;5.49;100.00;101572.69;4998149;28;20634;-73
2023/01/03 04:13:43;;;;;;;13.93;8.88;;;;;;;5.46;100.00;101570.03;4998314;28;20203;-74
2023/01/03 04:16:10;;;;;;;16.38;8.25;;;;;;;5.45;100.00;101579.84;4998089;28;20737;-73
2023/01/03 04:18:37;;;;;;;10.88;8.52;;;;;;;5.39;100.00;101582.53;4998044;28;20230;-74
2023/01/03 04:21:04;;;;;;;10.82;7.55;;;;;;;5.37;100.00;101589.69;5007004;28;20202;-72
2023/01/03 04:23:32;;;;;;;10.23;7.35;;;;;;;5.33;100.00;101587.91;5015918;28;20282;-72
2023/01/03 04:25:58;;;;;;;9.63;7.50;;;;;;;5.21;100.00;101581.72;5021118;28;20217;-73
2023/01/03 04:28:25;;;;;;;11.88;9.15;;;;;;;5.25;100.00;101576.41;5016962;28;20207;-73
2023/01/03 04:30:51;;;;;;;10.23;7.80;;;;;;;5.26;100.00;101575.47;5019990;28;20676;-73
2023/01/03 04:33:18;;;;;;;11.02;8.48;;;;;;;5.31;100.00;101581.69;5023339;28;20238;-75
2023/01/03 04:35:45;;;;;;;11.68;6.90;;;;;;;5.36;100.00;101586.13;5015057;28;20260;-74
2023/01/03 04:38:11;;;;;;;16.30;10.30;;;;;;;5.34;100.00;101579.03;4997439;28;20199;-73
2023/01/03 04:40:39;;;;;;;15.77;11.73;;;;;;;5.42;100.00;101587.88;4999090;28;20207;-73
2023/01/03 04:46:04;;;;;;;13.27;8.70;;;;;;;5.40;100.00;101589.66;4956818;28;20255;-73
2023/01/03 04:48:31;;;;;;;16.70;10.07;;;;;;;5.44;100.00;101591.41;4956669;28;20604;-74
2023/01/03 04:50:59;;;;;;;10.68;8.70;;;;;;;5.47;100.00;101591.38;4956915;28;20315;-75
2023/01/03 04:53:27;;;;;;;12.32;8.52;;;;;;;5.41;100.00;101597.66;4975882;28;20214;-73
2023/01/03 04:55:56;;;;;;;12.77;9.50;;;;;;;5.35;100.00;101596.81;4975600;28;20204;-74
2023/01/03 04:58:23;;;;;;;15.63;9.85;;;;;;;5.38;100.00;101594.09;4973881;28;20274;-72
2023/01/03 05:00:49;;;;;;;15.90;10.65;;;;;;;5.30;100.00;101593.28;4975991;28;20211;-72
2023/01/03 05:03:16;;;;;;;12.60;7.90;;;;;;;5.05;100.00;101595.16;4974924;28;20227;-73
2023/01/03 05:05:43;;;;;;;10.60;7.80;;;;;;;5.06;100.00;101595.13;4964544;28;20296;-72
2023/01/03 05:08:11;;;;;;;11.43;8.50;;;;;;;4.81;100.00;101584.53;4972707;28;20200;-76
2023/01/03 05:10:38;;;;;;;13.02;9.52;;;;;;;4.85;100.00;101596.09;4969858;28;20228;-75
2023/01/03 05:13:06;;;;;;;20.42;11.10;;;;;;;4.93;100.00;101593.41;4955210;28;20599;-75
2023/01/03 05:15:36;;;;;;;22.33;11.75;;;;;;;4.95;100.00;101592.53;4962980;28;20207;-74
2023/01/03 05:18:03;;;;;;;12.38;8.57;;;;;;;4.95;100.00;101588.94;5015347;28;20599;-76
2023/01/03 05:26:00;;;;;;;20.27;12.98;;;;;;;4.90;100.00;101594.31;5016831;28;20193;-71
2023/01/03 05:28:29;;;;;;;14.02;9.18;;;;;;;4.68;100.00;101604.16;5016262;28;20214;-73
2023/01/03 05:30:57;;;;;;;16.45;10.57;;;;;;;4.66;100.00;101592.59;5017828;28;20229;-75
2023/01/03 05:33:24;;;;;;;14.25;9.07;;;;;;;4.68;100.00;101593.50;5019128;28;20208;-73
2023/01/03 05:35:51;;;;;;;13.00;8.63;;;;;;;4.64;100.00;101596.16;5016002;28;20202;-72
2023/01/03 05:38:17;;;;;;;15.45;10.55;;;;;;;4.52;100.00;101592.63;4997112;28;20211;-73
2023/01/03 05:40:44;;;;;;;23.67;11.85;;;;;;;4.66;100.00;101600.59;4996896;28;20211;-73
2023/01/03 05:43:11;;;;;;;18.73;12.20;;;;;;;4.73;100.00;101594.34;4998322;28;20213;-71
2023/01/03 05:45:39;;;;;;;20.38;12.75;;;;;;;4.89;100.00;101597.00;5005666;28;20648;-74
2023/01/03 05:48:07;;;;;;;20.05;12.55;;;;;;;4.96;100.00;101599.63;5016022;28;20277;-74
2023/01/03 05:50:34;;;;;;;23.98;13.10;;;;;;;4.96;100.00;101596.97;5017301;28;20344;-74
2023/01/03 05:53:01;;;;;;;18.17;13.05;;;;;;;4.97;100.00;101606.72;5018808;28;20225;-74
2023/01/03 05:55:27;;;;;;;22.23;12.82;;;;;;;5.06;100.00;101600.47;5009948;28;20622;-74
2023/01/03 05:57:54;;;;;;;21.13;13.43;;;;;;;5.12;100.00;101611.16;4997150;28;20215;-72
2023/01/03 06:00:20;;;;;;;23.58;13.10;;;;;;;5.07;100.00;101610.28;4999795;28;20223;-73
2023/01/03 06:02:48;;;;;;;20.63;14.65;;;;;;;5.06;100.00;101612.94;4998325;28;20199;-72
2023/01/03 06:05:15;;;;;;;21.95;13.32;;;;;;;5.04;100.00;101609.41;4997573;28;20210;-71
2023/01/03 06:07:41;;;;;;;26.15;14.45;;;;;;;5.01;100.00;101613.84;4998400;28;20231;-71
2023/01/03 06:10:09;;;;;;;22.25;13.60;;;;;;;5.02;100.00;101614.75;4999668;28;20209;-71
2023/01/03 06:12:36;;;;;;;22.80;12.55;;;;;;;5.00;100.00;101612.09;4999570;28;20673;-72
2023/01/03 06:15:02;;;;;;;21.58;13.13;;;;;;;5.04;100.00;101609.41;5000409;28;20225;-73
2023/01/03 06:20:14;;;;;;;23.85;14.43;;;;;;;4.98;100.00;101621.00;4999402;28;20801;-73
2023/01/03 06:22:41;;;;;;;21.70;12.68;;;;;;;4.99;100.00;101620.97;5000035;28;20218;-72
2023/01/03 06:25:08;;;;;;;22.63;13.77;;;;;;;4.99;100.00;101625.44;4999649;28;20287;-73
2023/01/03 06:27:35;;;;;;;22.40;14.30;;;;;;;5.05;100.00;101629.88;4998343;28;20230;-75
2023/01/03 06:30:01;;;;;;;23.50;15.07;;;;;;;5.18;100.00;101632.50;5001013;28;20196;-74
2023/01/03 06:32:28;;;;;;;23.00;15.13;;;;;;;5.27;100.00;101638.69;4997327;28;20204;-74
2023/01/03 06:34:54;;;;;;;24.02;15.18;;;;;;;5.30;100.00;101638.69;5001543;28;20207;-72
2023/01/03 06:37:22;;;;;;;23.77;15.55;;;;;;;5.32;100.00;101631.56;5005531;28;20598;-74
2023/01/03 06:39:49;;;;;;;24.20;16.35;;;;;;;5.25;100.00;101637.84;5003275;28;20226;-73
2023/01/03 06:53:17;;;;;;;25.52;17.35;;;;;;;5.03;100.00;101632.53;4906179;29;20207;-72
2023/01/03 06:55:46;;;;;;;26.55;16.15;;;;;;;5.00;100.00;101621.88;4907652;29;20207;-72
2023/01/03 06:58:13;;;;;;;27.10;15.10;;;;;;;5.01;100.00;101626.31;4906434;29;20206;-70
2023/01/03 07:00:43;;;;;;;27.30;16.73;;;;;;;4.94;100.00;101621.88;4900369;29;20587;-75
2023/01/03 07:03:09;;;;;;;24.60;16.08;;;;;;;4.92;100.00;101637.03;4901074;29;20241;-73
2023/01/03 07:05:36;;;;;;;28.63;16.95;;;;;;;4.97;100.00;101643.22;4898957;29;20233;-73
2023/01/03 07:08:02;;;;;;;23.63;15.45;;;;;;;4.95;100.00;101645.94;4900645;29;20241;-73
2023/01/03 07:10:30;;;;;;;25.75;16.88;;;;;;;4.98;100.00;101642.34;4902494;29;20211;-72
2023/01/03 07:15:44;;;;;;;27.55;15.63;;;;;;;5.03;100.00;101645.00;4900593;29;20202;-74
2023/01/03 07:18:11;;;;;;;26.00;17.00;;;;;;;5.05;100.00;101646.78;4944027;23;20231;-71
2023/01/03 07:20:41;;;;;;;27.90;17.65;;;;;;;5.12;100.00;101650.31;4997291;28;20588;-72
2023/01/03 07:23:07;;;;;;;31.10;18.30;;;;;;;5.19;100.00;101652.97;4997238;28;20262;-71
2023/01/03 07:25:39;;;;;;;30.30;17.52;;;;;;;5.19;100.00;101650.28;5001426;28;20214;-71
2023/01/03 07:28:06;;;;;;;28.73;17.73;;;;;;;5.18;100.00;101655.66;5006870;28;20282;-71
2023/01/03 07:30:37;;;;;;;30.10;16.25;;;;;;;5.20;100.00;101651.16;5005423;28;20199;-72
2023/01/03 07:33:04;;;;;;;26.20;17.60;;;;;;;5.22;100.00;101662.75;5008611;28;20234;-71
2023/01/03 07:35:31;;;;;;;27.23;16.58;;;;;;;5.26;100.00;101664.50;5009639;28;20267;-70
2023/01/03 07:37:58;;;;;;;29.67;17.80;;;;;;;5.32;100.00;101664.50;5009342;28;20234;-73
2023/01/03 07:40:24;;;;;;;26.88;16.80;;;;;;;5.39;100.00;101670.72;5006948;28;20227;-72
2023/01/03 07:45:40;;;;;;;24.98;15.25;;;;;;;5.52;100.00;101684.94;5008864;28;20178;-73
2023/01/03 07:48:06;;;;;;;25.88;16.85;;;;;;;5.49;100.00;101692.94;5009624;28;20271;-71
2023/01/03 07:50:33;;;;;;;28.65;17.92;;;;;;;5.45;100.00;101692.06;5008246;28;20203;-71
2023/01/03 07:53:00;;;;;;;30.70;18.65;;;;;;;5.38;100.00;101703.66;4994276;28;20213;-73
2023/01/03 07:55:27;;;;;;;28.55;18.50;;;;;;;5.44;100.00;101699.19;5014309;28;20218;-74
2023/01/03 07:57:55;;;;;;;27.73;15.70;;;;;;;5.52;100.00;101704.50;5016281;28;20238;-72
2023/01/03 08:00:22;;;;;;;25.67;16.50;;;;;;;5.53;100.00;101703.59;5015707;28;20635;-71
2023/01/03 08:02:48;;;;;;;28.77;16.52;;;;;;;5.57;100.00;101702.69;5013959;28;20199;-72
2023/01/03 08:05:15;;;;;;;27.65;17.65;;;;;;;5.63;100.00;101705.38;5015133;28;20203;-72
2023/01/03 08:07:42;;;;;;;24.73;15.05;;;;;;;5.73;100.00;101710.66;5013957;28;20223;-71
2023/01/03 08:15:38;;;;;;;29.20;19.02;;;;;;;5.79;100.00;101716.00;5013275;28;20214;-70
2023/01/03 08:18:05;;;;;;;27.35;17.30;;;;;;;5.83;100.00;101726.66;5012000;28;20235;-72
2023/01/03 08:20:32;;;;;;;25.10;16.77;;;;;;;6.11;100.00;101731.91;5012555;28;20654;-71
2023/01/03 08:22:59;;;;;;;24.52;17.30;;;;;;;6.45;100.00;101732.56;5012119;28;20219;-71
2023/01/03 08:25:25;;;;;;;20.70;15.02;;;;;;;6.72;100.00;101735.94;5011990;28;20203;-71
2023/01/03 08:27:52;;;;;;;22.20;14.70;;;;;;;6.54;100.00;101739.66;5012680;28;20320;-71
2023/01/03 08:30:19;;;;;;;21.33;13.80;;;;;;;6.47;100.00;101738.81;5013103;28;20214;-72
2023/01/03 08:32:47;;;;;;;21.58;13.73;;;;;;;6.56;100.00;101745.88;5010146;28;20286;-72
2023/01/03 08:35:14;;;;;;;20.52;14.40;;;;;;;6.94;100.00;101755.38;5010022;28;20263;-72
2023/01/03 08:37:41;;;;;;;19.35;14.30;;;;;;;7.48;100.00;101742.34;5006083;28;20234;-74
2023/01/03 08:40:11;;;;;;;15.88;12.20;;;;;;;8.02;100.00;101746.16;5004183;28;20242;-72
2023/01/03 08:42:38;;;;;;;15.18;11.63;;;;;;;8.34;100.00;101751.06;5004172;28;20263;-72
2023/01/03 08:45:09;;;;;;;16.00;12.55;;;;;;;8.75;100.00;101752.25;5005649;28;20205;-73
2023/01/03 08:47:35;;;;;;;12.48;10.90;;;;;;;9.24;100.00;101756.78;5005514;28;20233;-72
2023/01/03 08:50:04;;;;;;;9.23;8.18;;;;;;;10.14;100.00;101748.69;5003188;28;20203;-74
2023/01/03 08:52:31;;;;;;;13.80;10.32;;;;;;;10.66;100.00;101751.16;5002960;28;20210;-72
2023/01/03 08:54:57;;;;;;;12.30;9.57;;;;;;;10.84;100.00;101742.63;5003808;28;20238;-73
2023/01/03 08:57:24;;;;;;;14.73;9.75;;;;;;;11.15;100.00;101747.22;5007948;28;20215;-72
2023/01/03 08:59:51;;;;;;;11.07;9.50;;;;;;;10.92;100.00;101750.50;5011606;28;20227;-73
2023/01/03 09:02:17;;;;;;;12.48;9.38;;;;;;;11.20;100.00;101738.06;5011206;28;20203;-71
2023/01/03 09:04:44;;;;;;;9.90;8.90;;;;;;;11.79;100.00;101747.25;5010270;28;20540;-72
2023/01/03 09:07:12;;;;;;;12.48;10.75;;;;;;;12.21;100.00;101752.31;5007380;28;20238;-72
2023/01/03 09:09:38;;;;;;;10.80;9.77;;;;;;;11.96;100.00;101755.78;5000288;28;20254;-72
2023/01/03 09:12:05;;;;;;;12.27;10.98;;;;;;;11.54;100.00;101756.03;5000227;28;20290;-71
2023/01/03 09:14:32;;;;;;;11.63;10.25;;;;;;;11.33;100.00;101751.22;5000189;28;20207;-73
2023/01/03 09:16:58;;;;;;;14.23;11.95;;;;;;;12.03;100.00;101760.06;5000240;28;20583;-72
2023/01/03 09:19:25;;;;;;;11.88;10.07;;;;;;;11.57;100.00;101755.94;4997446;28;20235;-72
2023/01/03 09:21:52;;;;;;;12.93;10.45;;;;;;;11.91;100.00;101752.31;4997849;28;20204;-72
2023/01/03 09:24:20;;;;;;;12.93;10.73;;;;;;;12.24;100.00;101757.66;4997977;28;20210;-72
2023/01/03 09:26:47;;;;;;;12.50;10.52;;;;;;;12.34;100.00;101759.13;4998553;28;20508;-71
2023/01/03 09:29:13;;;;;;;11.65;10.45;;;;;;;12.85;100.00;101763.78;4997871;28;20223;-72
2023/01/03 09:31:40;;;;;;;11.55;9.98;;;;;;;12.92;100.00;101759.94;4998221;28;20203;-73
2023/01/03 09:34:07;;;;;;;11.38;9.90;;;;;;;13.11;100.00;101762.00;5007360;28;20198;-74
2023/01/03 09:36:35;;;;;;;10.63;9.45;;;;;;;13.32;100.00;101761.31;5005182;28;20263;-74
2023/01/03 09:39:02;;;;;;;13.45;10.30;;;;;;;13.63;100.00;101753.91;5004759;28;20219;-71
2023/01/03 09:41:30;;;;;;;10.55;9.45;;;;;;;13.52;100.00;101757.91;5001634;28;20255;-72
2023/01/03 09:44:01;;;;;;;11.23;8.52;;;;;;;14.42;100.00;101759.94;5003544;28;20286;-72
2023/01/03 09:46:31;;;;;;;11.40;9.60;;;;;;;14.72;100.00;101763.25;5004103;28;20210;-75
2023/01/03 09:48:59;;;;;;;8.50;7.70;;;;;;;14.85;100.00;101760.94;5002963;28;20223;-73
2023/01/03 10:05:53;;;;;;;8.95;8.05;;;;;;;16.23;100.00;101762.94;5001012;28;20660;-72
2023/01/03 10:08:36;;;;;;;8.85;8.00;;;;;;;15.77;100.00;101754.25;4999757;28;20255;-73
2023/01/03 10:11:07;;;;;;;9.20;8.30;;;;;;;16.47;92.37;101753.63;4998047;28;20245;-73
2023/01/03 10:13:55;;;;;;;10.20;9.02;;;;;;;15.70;100.00;101747.28;4996177;28;20235;-75
2023/01/03 10:16:32;;;;;;;9.63;8.73;;;;;;;15.50;100.00;101746.34;4998497;28;20250;-73
2023/01/03 10:19:37;;;;;;;9.33;8.43;;;;;;;15.35;100.00;101741.59;4961800;28;1074256;-73
2023/01/03 10:22:09;;;;;;;9.82;8.85;;;;;;;14.47;100.00;101741.66;4997629;28;20269;-72
2023/01/03 10:24:43;;;;;;;9.05;8.20;;;;;;;14.62;100.00;101735.63;4997095;28;20221;-72
2023/01/03 10:27:15;;;;;;;8.77;7.88;;;;;;;14.05;100.00;101740.59;4982422;28;20249;-72
2023/01/03 10:29:44;;;;;;;9.95;7.93;;;;;;;13.30;100.00;101744.25;5007894;28;20752;-73
2023/01/03 10:32:29;;;;;;;8.73;7.72;;;;;;;14.05;100.00;101737.00;5008840;28;20203;-70
2023/01/03 10:35:15;;;;;;;10.50;7.68;;;;;;;14.27;100.00;101740.63;5002906;28;20680;-72
2023/01/03 10:37:42;;;;;;;9.07;8.15;;;;;;;13.69;100.00;101734.75;4998159;28;20227;-72
2023/01/03 10:40:10;;;;;;;8.02;7.22;;;;;;;14.15;100.00;101724.84;4980703;28;20249;-71
2023/01/03 10:42:39;;;;;;;8.70;7.90;;;;;;;13.66;100.00;101726.75;4997327;28;20581;-72
2023/01/03 10:45:12;;;;;;;8.82;7.28;;;;;;;13.87;100.00;101735.88;4997072;28;20246;-71
2023/01/03 10:47:39;;;;;;;7.18;6.47;;;;;;;13.38;100.00;101737.66;4996722;28;20306;-73
2023/01/03 10:50:07;;;;;;;10.60;6.70;;;;;;;12.85;100.00;101735.88;4997283;28;20274;-72
2023/01/03 10:52:38;;;;;;;8.90;7.15;;;;;;;13.10;100.00;101727.81;4997220;28;20203;-72
2023/01/03 10:55:12;;;;;;;9.15;6.93;;;;;;;13.67;100.00;101732.06;4996457;28;20191;-71
2023/01/03 10:57:44;;;;;;;7.05;6.35;;;;;;;13.25;100.00;101726.34;4995796;28;20223;-72
2023/01/03 11:00:28;;;;;;;8.23;7.43;;;;;;;13.70;100.00;101718.44;4996438;28;20212;-71
2023/01/03 11:03:08;;;;;;;9.15;6.93;;;;;;;13.22;100.00;101734.59;4997343;28;20209;-74
2023/01/03 11:05:35;;;;;;;9.00;6.95;;;;;;;11.84;100.00;101721.88;4997471;28;20463;-73
2023/01/03 11:08:04;;;;;;;10.23;7.70;;;;;;;11.19;100.00;101728.22;4999814;28;20327;-74
2023/01/03 11:10:48;;;;;;;9.95;7.18;;;;;;;10.67;100.00;101731.34;5001829;28;20275;-75
2023/01/03 11:13:24;;;;;;;7.78;6.93;;;;;;;10.18;100.00;101731.56;4985260;28;20213;-73
2023/01/03 11:15:56;;;;;;;8.73;6.65;;;;;;;10.24;100.00;101725.13;5006525;28;20191;-73
2023/01/03 11:18:25;;;;;;;9.25;7.10;;;;;;;10.40;100.00;101726.63;5005194;28;20235;-72
2023/01/03 11:21:00;;;;;;;10.82;7.65;;;;;;;10.08;100.00;101723.72;5007534;28;20223;-73
2023/01/03 11:23:43;;;;;;;8.25;6.40;;;;;;;9.98;100.00;101720.34;5007652;28;20187;-73
2023/01/03 11:26:21;;;;;;;10.27;7.45;;;;;;;9.62;100.00;101724.72;5007738;28;20213;-71
2023/01/03 11:29:00;;;;;;;8.63;6.13;;;;;;;9.59;100.00;101728.34;5006564;28;20494;-73
2023/01/03 11:31:39;;;;;;;8.73;6.43;;;;;;;9.48;100.00;101727.69;5004884;28;20278;-72
2023/01/03 11:34:21;;;;;;;7.82;6.13;;;;;;;9.63;100.00;101727.34;5005160;28;20801;-71
2023/01/03 11:36:52;;;;;;;8.35;6.75;;;;;;;9.49;100.00;101724.06;5005661;28;20207;-72
2023/01/03 11:39:32;;;;;;;7.25;6.25;;;;;;;9.34;100.00;101722.56;5006297;28;20219;-71
2023/01/03 11:42:13;;;;;;;8.73;5.75;;;;;;;9.28;100.00;101737.00;5005960;28;20238;-72
2023/01/03 11:45:03;;;;;;;10.13;6.15;;;;;;;9.44;100.00;101731.34;5005595;28;20551;-71
2023/01/03 11:47:40;;;;;;;8.07;6.25;;;;;;;10.21;100.00;101719.84;4906639;29;20238;-72
2023/01/03 11:50:23;;;;;;;8.20;6.55;;;;;;;10.43;100.00;101723.84;4907290;29;20210;-73
2023/01/03 11:52:56;;;;;;;9.02;6.80;;;;;;;10.21;100.00;101715.34;4908755;29;20295;-72
2023/01/03 11:55:50;;;;;;;14.82;8.45;;;;;;;10.63;100.00;101719.78;4909196;29;20221;-74
2023/01/03 11:58:53;;;;;;;9.20;7.07;;;;;;;10.67;100.00;101713.38;4909117;29;20643;-71
2023/01/03 12:01:32;;;;;;;9.00;5.70;;;;;;;10.76;100.00;101706.88;4896766;29;20727;-72
2023/01/03 12:04:18;;;;;;;7.20;5.53;;;;;;;10.71;100.00;101708.81;4909634;29;20191;-71
2023/01/03 12:06:56;;;;;;;6.70;5.53;;;;;;;10.47;100.00;101700.41;4909481;29;20190;-73
2023/01/03 12:09:29;;;;;;;6.53;5.47;;;;;;;10.40;100.00;101699.69;4906856;29;20230;-72
2023/01/03 12:12:28;;;;;;;6.22;4.50;;;;;;;10.06;100.00;101688.75;4906315;29;20704;-72
2023/01/03 12:14:59;;;;;;;9.40;5.45;;;;;;;9.99;100.00;101693.41;4830512;29;20274;-73
2023/01/03 12:17:41;;;;;;;9.10;4.97;;;;;;;9.81;100.00;101694.72;4829284;29;20209;-72
2023/01/03 12:20:19;;;;;;;6.75;4.65;;;;;;;9.74;100.00;101692.16;4828355;29;20233;-72
2023/01/03 12:22:52;;;;;;;6.90;4.97;;;;;;;9.66;100.00;101692.34;4829608;29;20219;-73
2023/01/03 12:25:24;;;;;;;10.60;5.10;;;;;;;9.59;100.00;101698.78;4901414;29;20230;-72
2023/01/03 12:27:56;;;;;;;7.53;5.00;;;;;;;9.54;100.00;101695.25;4921619;29;20309;-75
2023/01/03 12:30:33;;;;;;;7.25;5.40;;;;;;;9.71;100.00;101682.34;4923139;29;20250;-73
2023/01/03 12:33:05;;;;;;;9.30;4.90;;;;;;;9.56;100.00;101691.63;4921071;29;20252;-73
2023/01/03 12:35:42;;;;;;;6.20;4.57;;;;;;;9.65;100.00;101677.09;4905947;29;20204;-72
2023/01/03 12:38:10;;;;;;;6.82;4.43;;;;;;;9.65;100.00;101677.09;4918852;29;20221;-73
2023/01/03 12:40:45;;;;;;;7.55;4.60;;;;;;;9.56;100.00;101683.56;4922217;29;20228;-72
2023/01/03 12:43:20;;;;;;;7.40;5.00;;;;;;;9.57;100.00;101688.03;4925653;29;20274;-71
2023/01/03 12:45:51;;;;;;;12.00;5.85;;;;;;;9.63;100.00;101680.75;4930772;29;20228;-72